Time;durP1;ratioP1;P1;durP2;ratioP2;P2;SDS_P1;SDS_P2;PMS_P1;PMS_P2;Temp;Humidity;BMP_temperature;BMP_pressure;BME280_temperature;BME280_humidity;BME280_pressure;Samples;Min_cycle;Max_cycle;Signal;HPM_P1;HPM_P2
2022/03/22 00:00:31;;;;;;;31.97;20.17;;;;;;;;;;5133499;27;20077;-47
2022/03/22 00:02:58;;;;;;;32.07;21.20;;;;;;;;;;5134796;27;20480;-47
2022/03/22 00:05:25;;;;;;;30.37;20.77;;;;;;;;;;5133408;27;20031;-47
2022/03/22 00:07:51;;;;;;;28.23;18.90;;;;;;;;;;5116363;27;20032;-48
2022/03/22 00:10:17;;;;;;;27.63;19.77;;;;;;;;;;5122178;27;20392;-49
2022/03/22 00:12:43;;;;;;;29.37;21.23;;;;;;;;;;5113674;28;20028;-47
2022/03/22 00:15:10;;;;;;;30.33;20.83;;;;;;;;;;5120698;27;20096;-47
2022/03/22 00:17:37;;;;;;;31.53;21.20;;;;;;;;;;5134421;27;20106;-47
2022/03/22 00:20:04;;;;;;;29.73;20.87;;;;;;;;;;5133009;27;20380;-48
2022/03/22 00:22:30;;;;;;;27.70;18.83;;;;;;;;;;5134430;27;20106;-47
2022/03/22 00:24:56;;;;;;;26.73;19.73;;;;;;;;;;5132298;27;20432;-47
2022/03/22 00:27:22;;;;;;;32.80;21.83;;;;;;;;;;5125936;27;20099;-48
2022/03/22 00:29:48;;;;;;;36.22;21.15;;;;;;;;;;5117621;27;20140;-49
2022/03/22 00:32:14;;;;;;;31.20;21.33;;;;;;;;;;5133341;27;20027;-47
2022/03/22 00:34:47;;;;;;;38.13;23.03;;;;;;;;;;5132647;27;20082;-48
2022/03/22 00:37:17;;;;;;;32.60;21.97;;;;;;;;;;5129624;27;20038;-47
2022/03/22 00:39:43;;;;;;;37.30;21.70;;;;;;;;;;5131622;27;20042;-50
2022/03/22 00:42:10;;;;;;;33.13;22.00;;;;;;;;;;5134119;27;20035;-51
2022/03/22 00:44:38;;;;;;;38.30;22.97;;;;;;;;;;5132291;27;20028;-48
2022/03/22 00:47:04;;;;;;;35.33;22.13;;;;;;;;;;5133929;27;20030;-53
2022/03/22 00:49:33;;;;;;;39.50;21.40;;;;;;;;;;5114179;27;20023;-51
2022/03/22 00:52:01;;;;;;;37.70;22.90;;;;;;;;;;5132617;27;20365;-49
2022/03/22 00:54:27;;;;;;;40.43;23.07;;;;;;;;;;5133340;27;20027;-51
2022/03/22 00:56:54;;;;;;;38.83;22.07;;;;;;;;;;5133746;27;20031;-48
2022/03/22 01:02:05;;;;;;;;;;;;;;;;;;5114145;28;20123;-48
2022/03/22 01:04:31;;;;;;;37.10;22.70;;;;;;;;;;5113006;27;19904;-51
2022/03/22 01:06:57;;;;;;;32.83;21.37;;;;;;;;;;5131927;27;20027;-47
2022/03/22 01:09:23;;;;;;;35.30;22.23;;;;;;;;;;5133399;27;20029;-48
2022/03/22 01:11:51;;;;;;;34.27;21.10;;;;;;;;;;5129607;27;20027;-49
2022/03/22 01:14:17;;;;;;;30.00;20.33;;;;;;;;;;5133255;27;20023;-49
2022/03/22 01:16:43;;;;;;;29.00;19.37;;;;;;;;;;5131215;27;20031;-49
2022/03/22 01:19:09;;;;;;;26.93;20.47;;;;;;;;;;5133562;27;20046;-48
2022/03/22 01:21:36;;;;;;;28.47;20.00;;;;;;;;;;5131899;27;20034;-48
2022/03/22 01:24:06;;;;;;;28.97;20.67;;;;;;;;;;5133828;27;20399;-48
2022/03/22 01:26:32;;;;;;;30.40;20.47;;;;;;;;;;5121435;28;20019;-48
2022/03/22 01:28:58;;;;;;;29.10;20.47;;;;;;;;;;5112768;28;20111;-48
2022/03/22 01:31:25;;;;;;;31.30;20.23;;;;;;;;;;5116641;28;20020;-48
2022/03/22 01:33:51;;;;;;;34.33;24.20;;;;;;;;;;5114832;28;20036;-47
2022/03/22 01:36:17;;;;;;;29.03;21.70;;;;;;;;;;5118636;28;20073;-48
2022/03/22 01:38:44;;;;;;;33.47;20.37;;;;;;;;;;5124300;28;20011;-49
2022/03/22 01:41:10;;;;;;;31.57;20.73;;;;;;;;;;5126755;28;20031;-48
2022/03/22 01:43:36;;;;;;;30.33;20.97;;;;;;;;;;5134785;27;20038;-48
2022/03/22 01:46:03;;;;;;;27.27;20.17;;;;;;;;;;5136231;27;20023;-48
2022/03/22 01:48:29;;;;;;;27.90;20.50;;;;;;;;;;5137246;27;20035;-49
2022/03/22 01:50:55;;;;;;;29.33;21.17;;;;;;;;;;5136227;27;20027;-48
2022/03/22 01:53:22;;;;;;;28.10;20.47;;;;;;;;;;5137451;27;20102;-49
2022/03/22 01:55:48;;;;;;;31.53;21.03;;;;;;;;;;5136126;27;20083;-47
2022/03/22 01:58:14;;;;;;;32.17;21.63;;;;;;;;;;5118757;27;20015;-48
2022/03/22 02:00:40;;;;;;;32.00;22.47;;;;;;;;;;5135971;27;20027;-49
2022/03/22 02:05:51;;;;;;;;;;;;;;;;;;5136676;27;20134;-47
2022/03/22 02:08:18;;;;;;;33.43;23.40;;;;;;;;;;5137111;27;20369;-47
2022/03/22 02:10:44;;;;;;;37.27;22.53;;;;;;;;;;5135059;27;20023;-47
2022/03/22 02:13:10;;;;;;;34.93;23.63;;;;;;;;;;5136027;27;20038;-49
2022/03/22 02:15:36;;;;;;;35.37;23.37;;;;;;;;;;5135742;27;20023;-48
2022/03/22 02:18:02;;;;;;;33.60;24.00;;;;;;;;;;5136310;27;20472;-48
2022/03/22 02:20:28;;;;;;;39.00;24.53;;;;;;;;;;5116725;27;20027;-49
2022/03/22 02:23:05;;;;;;;34.47;24.77;;;;;;;;;;5135997;27;20484;-52
2022/03/22 02:25:31;;;;;;;36.37;25.00;;;;;;;;;;5135024;27;20023;-51
2022/03/22 02:27:57;;;;;;;32.77;23.77;;;;;;;;;;5136167;27;20377;-48
2022/03/22 02:30:23;;;;;;;34.40;21.97;;;;;;;;;;5133869;27;20095;-48
2022/03/22 02:32:54;;;;;;;28.57;22.43;;;;;;;;;;5136077;27;20027;-50
2022/03/22 02:35:20;;;;;;;34.50;22.30;;;;;;;;;;5115874;27;20563;-49
2022/03/22 02:37:46;;;;;;;29.60;22.17;;;;;;;;;;5120782;27;20144;-51
2022/03/22 02:40:13;;;;;;;29.77;22.37;;;;;;;;;;5116671;27;20049;-47
2022/03/22 02:42:43;;;;;;;29.27;21.77;;;;;;;;;;5118393;27;20044;-47
2022/03/22 02:45:09;;;;;;;30.50;23.43;;;;;;;;;;5115610;28;20056;-48
2022/03/22 02:47:35;;;;;;;29.33;21.13;;;;;;;;;;5136074;27;20049;-50
2022/03/22 02:50:01;;;;;;;32.47;21.57;;;;;;;;;;5136646;27;20027;-47
2022/03/22 02:52:27;;;;;;;29.87;21.50;;;;;;;;;;5135255;27;20027;-47
2022/03/22 02:54:53;;;;;;;28.33;20.47;;;;;;;;;;5135102;27;20476;-50
2022/03/22 02:57:19;;;;;;;30.03;21.20;;;;;;;;;;5134674;27;20030;-48
2022/03/22 02:59:45;;;;;;;26.63;19.90;;;;;;;;;;5136090;27;20364;-50
2022/03/22 03:02:11;;;;;;;29.07;21.97;;;;;;;;;;5133599;27;20096;-48
2022/03/22 03:04:37;;;;;;;26.80;20.37;;;;;;;;;;5135487;27;20031;-48
2022/03/22 03:07:03;;;;;;;28.37;21.43;;;;;;;;;;5132714;27;20023;-48
2022/03/22 03:09:29;;;;;;;28.97;21.03;;;;;;;;;;5135703;27;20475;-48
2022/03/22 03:11:55;;;;;;;31.83;20.40;;;;;;;;;;5134482;27;20023;-48
2022/03/22 03:14:39;;;;;;;29.47;20.43;;;;;;;;;;5135828;27;20395;-50
2022/03/22 03:17:13;;;;;;;27.17;19.77;;;;;;;;;;5134740;27;20029;-50
2022/03/22 03:19:39;;;;;;;28.27;20.10;;;;;;;;;;5136093;27;20092;-47
2022/03/22 03:22:05;;;;;;;28.50;21.23;;;;;;;;;;5132972;27;20051;-49
2022/03/22 03:24:32;;;;;;;26.23;20.63;;;;;;;;;;5135775;27;20102;-47
2022/03/22 03:26:58;;;;;;;30.37;20.70;;;;;;;;;;5122024;27;20361;-47
2022/03/22 03:29:24;;;;;;;31.60;21.30;;;;;;;;;;5096639;28;20036;-49
2022/03/22 03:31:50;;;;;;;30.50;21.13;;;;;;;;;;5126208;27;20023;-48
2022/03/22 03:34:17;;;;;;;31.40;20.70;;;;;;;;;;5134130;27;20041;-50
2022/03/22 03:36:45;;;;;;;32.50;22.37;;;;;;;;;;5124779;27;20163;-47
2022/03/22 03:39:11;;;;;;;30.17;20.63;;;;;;;;;;5116228;27;20034;-48
2022/03/22 03:42:00;;;;;;;29.03;21.73;;;;;;;;;;5134003;27;20035;-50
2022/03/22 03:47:15;;;;;;;29.20;21.00;;;;;;;;;;5134040;27;20034;-48
2022/03/22 03:49:42;;;;;;;28.60;21.37;;;;;;;;;;5135216;27;20084;-48
2022/03/22 03:52:15;;;;;;;28.67;21.17;;;;;;;;;;5121102;27;20046;-48
2022/03/22 03:54:42;;;;;;;29.23;20.90;;;;;;;;;;5114510;28;20027;-47
2022/03/22 03:57:08;;;;;;;33.60;21.73;;;;;;;;;;5126618;27;20023;-47
2022/03/22 03:59:35;;;;;;;29.43;21.33;;;;;;;;;;5134807;27;20030;-51
2022/03/22 04:02:02;;;;;;;28.53;21.43;;;;;;;;;;5133380;27;20049;-52
2022/03/22 04:04:28;;;;;;;30.97;22.20;;;;;;;;;;5132758;27;20076;-48
2022/03/22 04:06:54;;;;;;;30.80;22.03;;;;;;;;;;5133297;27;20058;-48
2022/03/22 04:09:20;;;;;;;29.10;20.77;;;;;;;;;;5128520;27;20035;-47
2022/03/22 04:11:46;;;;;;;29.10;22.10;;;;;;;;;;5123216;27;20034;-49
2022/03/22 04:14:13;;;;;;;30.43;21.20;;;;;;;;;;5134590;27;20106;-49
2022/03/22 04:16:39;;;;;;;28.57;20.67;;;;;;;;;;5133333;27;20102;-47
2022/03/22 04:19:08;;;;;;;29.37;20.37;;;;;;;;;;5134542;27;20023;-48
2022/03/22 04:21:35;;;;;;;29.97;21.27;;;;;;;;;;5133574;27;20039;-49
2022/03/22 04:24:06;;;;;;;27.53;21.27;;;;;;;;;;5134437;27;20069;-48
2022/03/22 04:26:32;;;;;;;27.93;19.67;;;;;;;;;;5133036;27;20520;-52
2022/03/22 04:34:28;;;;;;;30.00;21.77;;;;;;;;;;5134333;27;20069;-47
2022/03/22 04:36:57;;;;;;;30.47;21.50;;;;;;;;;;5130475;27;20015;-48
2022/03/22 04:39:26;;;;;;;30.97;21.03;;;;;;;;;;5113588;28;20035;-47
2022/03/22 04:41:53;;;;;;;35.20;22.00;;;;;;;;;;5114068;27;20097;-49
2022/03/22 04:44:19;;;;;;;31.10;21.40;;;;;;;;;;5095331;28;20617;-49
2022/03/22 04:46:46;;;;;;;31.83;20.97;;;;;;;;;;5116629;27;20023;-48
2022/03/22 04:49:12;;;;;;;27.93;21.87;;;;;;;;;;5133769;27;20194;-48
2022/03/22 04:57:09;;;;;;;32.97;21.13;;;;;;;;;;5117585;27;20062;-49
2022/03/22 04:59:35;;;;;;;29.03;20.50;;;;;;;;;;5133795;27;20540;-48
2022/03/22 05:02:01;;;;;;;28.27;20.30;;;;;;;;;;5132701;27;20061;-51
2022/03/22 05:04:27;;;;;;;32.03;20.77;;;;;;;;;;5133838;27;20031;-54
2022/03/22 05:06:54;;;;;;;30.07;20.97;;;;;;;;;;5132937;27;20023;-53
2022/03/22 05:09:22;;;;;;;30.47;21.07;;;;;;;;;;5133535;27;20023;-52
2022/03/22 05:11:49;;;;;;;32.07;21.63;;;;;;;;;;5131474;27;20114;-48
2022/03/22 05:14:15;;;;;;;31.53;21.53;;;;;;;;;;5133626;27;20103;-48
2022/03/22 05:16:41;;;;;;;29.20;20.80;;;;;;;;;;5113648;27;20023;-48
2022/03/22 05:19:07;;;;;;;30.77;20.50;;;;;;;;;;5133229;27;20046;-47
2022/03/22 05:21:33;;;;;;;30.90;20.80;;;;;;;;;;5132236;27;20030;-48
2022/03/22 05:23:59;;;;;;;28.33;20.77;;;;;;;;;;5133362;27;20039;-48
2022/03/22 05:26:29;;;;;;;32.10;20.63;;;;;;;;;;5130290;27;20486;-48
2022/03/22 05:28:56;;;;;;;30.70;20.70;;;;;;;;;;5105766;28;20168;-48
2022/03/22 05:31:21;;;;;;;34.27;21.73;;;;;;;;;;5133503;27;20027;-47
2022/03/22 05:33:48;;;;;;;30.40;21.47;;;;;;;;;;5132119;28;20043;-51
2022/03/22 05:36:15;;;;;;;27.90;20.57;;;;;;;;;;5132541;28;20037;-47
2022/03/22 05:38:41;;;;;;;30.43;20.87;;;;;;;;;;5131966;28;20023;-48
2022/03/22 05:41:08;;;;;;;28.80;20.30;;;;;;;;;;5133257;28;20019;-49
2022/03/22 05:43:35;;;;;;;29.87;20.70;;;;;;;;;;5115122;28;20039;-48
2022/03/22 05:46:01;;;;;;;29.73;21.57;;;;;;;;;;5112517;28;20469;-48
2022/03/22 05:48:29;;;;;;;29.63;20.80;;;;;;;;;;5127133;28;20038;-47
2022/03/22 05:50:55;;;;;;;25.87;21.37;;;;;;;;;;5133277;28;20019;-48
2022/03/22 05:53:21;;;;;;;27.10;20.20;;;;;;;;;;5131996;28;20031;-47
2022/03/22 05:55:47;;;;;;;28.93;20.17;;;;;;;;;;5124217;28;20031;-51
2022/03/22 05:58:13;;;;;;;29.57;19.63;;;;;;;;;;5123985;28;20031;-48
2022/03/22 06:00:39;;;;;;;25.93;20.67;;;;;;;;;;5133234;28;20019;-48
2022/03/22 06:03:05;;;;;;;25.90;19.63;;;;;;;;;;5131455;28;20570;-48
2022/03/22 06:05:31;;;;;;;29.93;20.10;;;;;;;;;;5132480;28;20057;-48
2022/03/22 06:07:58;;;;;;;30.37;19.90;;;;;;;;;;5104366;28;20024;-47
2022/03/22 06:10:24;;;;;;;29.83;20.77;;;;;;;;;;5125129;28;20019;-47
2022/03/22 06:12:52;;;;;;;32.80;19.83;;;;;;;;;;5130865;28;20031;-46
2022/03/22 06:15:19;;;;;;;30.17;20.07;;;;;;;;;;5132142;28;20027;-46
2022/03/22 06:17:45;;;;;;;28.70;20.13;;;;;;;;;;5131648;28;20102;-48
2022/03/22 06:20:12;;;;;;;29.30;18.83;;;;;;;;;;5132666;28;20530;-48
2022/03/22 06:22:38;;;;;;;23.60;18.37;;;;;;;;;;5107434;28;20046;-50
2022/03/22 06:25:04;;;;;;;31.00;21.10;;;;;;;;;;5121068;28;20460;-49
2022/03/22 06:27:30;;;;;;;30.53;21.00;;;;;;;;;;5131027;28;20076;-48
2022/03/22 06:29:56;;;;;;;24.83;19.63;;;;;;;;;;5135151;27;20184;-50
2022/03/22 06:32:22;;;;;;;30.67;20.20;;;;;;;;;;5135747;27;20019;-52
2022/03/22 06:34:49;;;;;;;25.23;18.93;;;;;;;;;;5135572;27;20518;-46
2022/03/22 06:37:15;;;;;;;34.43;20.90;;;;;;;;;;5133820;27;20027;-47
2022/03/22 06:49:18;;;;;;;27.10;19.67;;;;;;;;;;5123374;27;20029;-49
2022/03/22 06:51:44;;;;;;;30.27;20.07;;;;;;;;;;5120364;27;20034;-47
2022/03/22 06:54:11;;;;;;;31.40;20.47;;;;;;;;;;5133392;27;20027;-47
2022/03/22 06:56:38;;;;;;;28.77;20.27;;;;;;;;;;5117453;27;20044;-47
2022/03/22 06:59:05;;;;;;;31.77;21.33;;;;;;;;;;5117051;27;20072;-46
2022/03/22 07:01:32;;;;;;;31.77;20.87;;;;;;;;;;5131764;27;20026;-46
2022/03/22 07:03:58;;;;;;;30.13;19.80;;;;;;;;;;5113973;27;20093;-47
2022/03/22 07:06:24;;;;;;;27.10;19.57;;;;;;;;;;5135476;27;20046;-49
2022/03/22 07:08:50;;;;;;;32.80;19.23;;;;;;;;;;5134370;27;20038;-49
2022/03/22 07:14:00;;;;;;;27.27;18.23;;;;;;;;;;5134788;27;20083;-50
2022/03/22 07:16:27;;;;;;;25.87;18.27;;;;;;;;;;5135915;27;20443;-46
2022/03/22 07:18:54;;;;;;;28.20;17.63;;;;;;;;;;5118785;27;20026;-47
2022/03/22 07:21:20;;;;;;;26.57;17.30;;;;;;;;;;5130770;27;20023;-49
2022/03/22 07:23:46;;;;;;;26.33;16.83;;;;;;;;;;5132493;27;20066;-47
2022/03/22 07:26:12;;;;;;;26.23;16.77;;;;;;;;;;5129622;27;20039;-50
2022/03/22 07:28:38;;;;;;;24.23;16.70;;;;;;;;;;5108968;27;20106;-51
2022/03/22 07:31:04;;;;;;;22.03;16.63;;;;;;;;;;5134909;27;20023;-46
2022/03/22 07:33:30;;;;;;;21.97;15.67;;;;;;;;;;5133854;27;20028;-48
2022/03/22 07:35:56;;;;;;;22.80;17.33;;;;;;;;;;5135176;27;20481;-47
2022/03/22 07:38:22;;;;;;;20.57;15.50;;;;;;;;;;5134180;27;20472;-49
2022/03/22 07:40:48;;;;;;;20.37;15.33;;;;;;;;;;5134760;27;20089;-47
2022/03/22 07:43:14;;;;;;;27.17;16.47;;;;;;;;;;5123445;27;20032;-48
2022/03/22 07:45:40;;;;;;;29.60;17.10;;;;;;;;;;5114725;28;20027;-47
2022/03/22 07:48:06;;;;;;;23.40;16.50;;;;;;;;;;5122106;27;20031;-49
2022/03/22 07:53:17;;;;;;;19.20;15.85;;;;;;;;;;5132631;27;20061;-48
2022/03/22 07:55:44;;;;;;;21.67;15.53;;;;;;;;;;5114552;28;20027;-49
2022/03/22 07:58:11;;;;;;;23.20;15.93;;;;;;;;;;5122027;27;20432;-49
2022/03/22 08:00:38;;;;;;;20.03;15.37;;;;;;;;;;5134932;27;20026;-47
2022/03/22 08:03:05;;;;;;;26.07;16.80;;;;;;;;;;5133822;27;20027;-52
2022/03/22 08:05:37;;;;;;;22.43;16.47;;;;;;;;;;5116351;27;20027;-51
2022/03/22 08:08:04;;;;;;;21.30;16.33;;;;;;;;;;5130579;27;20042;-52
2022/03/22 08:10:31;;;;;;;21.67;14.93;;;;;;;;;;5116424;27;20031;-48
2022/03/22 08:12:58;;;;;;;25.83;16.77;;;;;;;;;;5119606;27;20089;-50
2022/03/22 08:15:24;;;;;;;26.53;17.37;;;;;;;;;;5134650;27;20364;-49
2022/03/22 08:17:50;;;;;;;26.30;15.93;;;;;;;;;;5133439;27;20064;-51
2022/03/22 08:20:16;;;;;;;21.23;15.50;;;;;;;;;;5134594;27;20043;-47
2022/03/22 08:23:04;;;;;;;21.87;16.33;;;;;;;;;;5133287;27;20032;-49
2022/03/22 08:25:31;;;;;;;21.67;15.83;;;;;;;;;;5134776;27;20025;-49
2022/03/22 08:27:59;;;;;;;22.10;14.37;;;;;;;;;;5132847;27;20031;-48
2022/03/22 08:30:26;;;;;;;19.07;13.73;;;;;;;;;;5134490;27;20026;-51
2022/03/22 08:32:53;;;;;;;25.53;14.47;;;;;;;;;;5133070;27;20548;-48
2022/03/22 08:35:20;;;;;;;19.27;12.73;;;;;;;;;;5114044;27;20412;-48
2022/03/22 08:37:46;;;;;;;16.63;12.43;;;;;;;;;;5131983;27;20043;-48
2022/03/22 08:40:15;;;;;;;20.67;13.03;;;;;;;;;;5134147;27;20075;-48
2022/03/22 08:42:45;;;;;;;20.47;12.67;;;;;;;;;;5117156;27;20038;-48
2022/03/22 08:45:12;;;;;;;18.33;13.53;;;;;;;;;;5134224;27;20060;-51
2022/03/22 08:47:40;;;;;;;17.40;12.57;;;;;;;;;;5132949;27;20027;-51
2022/03/22 08:50:07;;;;;;;17.20;12.00;;;;;;;;;;5134092;27;20023;-49
2022/03/22 08:52:35;;;;;;;17.00;12.40;;;;;;;;;;5131990;27;20034;-51
2022/03/22 08:55:01;;;;;;;19.30;10.67;;;;;;;;;;5113557;28;20028;-52
2022/03/22 08:57:27;;;;;;;18.60;12.80;;;;;;;;;;5113454;28;20444;-49
2022/03/22 08:59:53;;;;;;;17.53;10.53;;;;;;;;;;5131994;27;20098;-48
2022/03/22 09:02:19;;;;;;;17.40;10.73;;;;;;;;;;5132992;27;20055;-51
2022/03/22 09:07:29;;;;;;;21.42;12.02;;;;;;;;;;5133660;27;20038;-48
2022/03/22 09:09:55;;;;;;;14.20;11.07;;;;;;;;;;5114553;27;20387;-48
2022/03/22 09:12:22;;;;;;;20.45;13.55;;;;;;;;;;5113082;28;20024;-48
2022/03/22 09:14:48;;;;;;;16.73;10.50;;;;;;;;;;5117757;27;20135;-48
2022/03/22 09:17:14;;;;;;;15.82;11.18;;;;;;;;;;5113085;28;20031;-49
2022/03/22 09:19:39;;;;;;;17.40;10.63;;;;;;;;;;5129667;27;20034;-49
2022/03/22 09:22:07;;;;;;;15.30;10.83;;;;;;;;;;5132641;27;20093;-50
2022/03/22 09:24:34;;;;;;;16.60;10.33;;;;;;;;;;5132251;27;20075;-48
2022/03/22 09:27:00;;;;;;;12.88;10.23;;;;;;;;;;5132374;27;20020;-48
2022/03/22 09:29:27;;;;;;;17.13;10.70;;;;;;;;;;5130789;27;20027;-48
2022/03/22 09:31:53;;;;;;;15.35;11.32;;;;;;;;;;5114973;28;20221;-52
2022/03/22 09:34:19;;;;;;;13.10;10.57;;;;;;;;;;5131978;28;20079;-51
2022/03/22 09:36:45;;;;;;;14.23;10.70;;;;;;;;;;5133098;28;20413;-47
2022/03/22 09:39:11;;;;;;;14.45;10.20;;;;;;;;;;5124648;28;20027;-48
2022/03/22 09:41:41;;;;;;;13.73;10.43;;;;;;;;;;5133311;28;20472;-48
2022/03/22 09:44:09;;;;;;;13.57;10.48;;;;;;;;;;5128748;28;20503;-49
2022/03/22 09:46:35;;;;;;;16.77;12.07;;;;;;;;;;5133269;28;20019;-47
2022/03/22 09:49:01;;;;;;;18.10;11.05;;;;;;;;;;5131765;28;20099;-47
2022/03/22 09:51:45;;;;;;;15.18;11.07;;;;;;;;;;5133347;28;20019;-47
2022/03/22 09:54:12;;;;;;;14.30;10.70;;;;;;;;;;5101907;28;20032;-49
2022/03/22 09:56:39;;;;;;;15.15;11.88;;;;;;;;;;5120251;28;20043;-50
2022/03/22 09:59:05;;;;;;;18.33;12.13;;;;;;;;;;5102317;28;20039;-48
2022/03/22 10:01:32;;;;;;;17.10;11.27;;;;;;;;;;5112617;28;20028;-48
2022/03/22 10:04:03;;;;;;;13.85;11.38;;;;;;;;;;5113945;27;20045;-48
2022/03/22 10:06:29;;;;;;;14.32;10.32;;;;;;;;;;5116728;28;20388;-50
2022/03/22 10:08:56;;;;;;;11.88;10.52;;;;;;;;;;5124442;27;20035;-48
2022/03/22 10:11:22;;;;;;;15.63;11.38;;;;;;;;;;5137447;27;20023;-52
2022/03/22 10:13:54;;;;;;;15.05;10.57;;;;;;;;;;5131418;27;20019;-46
2022/03/22 10:16:20;;;;;;;16.00;12.13;;;;;;;;;;5137034;27;20077;-47
2022/03/22 10:18:47;;;;;;;15.13;11.32;;;;;;;;;;5127829;27;20477;-50
2022/03/22 10:21:13;;;;;;;15.77;11.77;;;;;;;;;;5119355;27;20053;-50
2022/03/22 10:23:52;;;;;;;18.48;12.25;;;;;;;;;;5135491;27;20039;-49
2022/03/22 10:26:19;;;;;;;17.40;11.88;;;;;;;;;;5136870;27;20027;-47
2022/03/22 10:28:55;;;;;;;14.68;11.55;;;;;;;;;;5135332;27;20035;-48
2022/03/22 10:31:37;;;;;;;15.05;11.35;;;;;;;;;;5137050;27;20433;-52
2022/03/22 10:34:03;;;;;;;14.38;11.07;;;;;;;;;;5135438;27;20130;-48
2022/03/22 10:36:29;;;;;;;17.50;11.43;;;;;;;;;;5136588;27;20031;-52
2022/03/22 10:38:55;;;;;;;14.10;11.18;;;;;;;;;;5134720;27;20038;-50
2022/03/22 10:41:25;;;;;;;14.82;10.70;;;;;;;;;;5136219;27;20356;-47
2022/03/22 10:44:23;;;;;;;13.45;10.77;;;;;;;;;;5134911;27;20146;-53
2022/03/22 10:46:49;;;;;;;14.85;10.48;;;;;;;;;;5116842;27;20035;-50
2022/03/22 10:49:34;;;;;;;12.35;9.75;;;;;;;;;;5134634;27;20019;-47
2022/03/22 10:52:00;;;;;;;12.50;10.05;;;;;;;;;;5129779;27;20027;-51
2022/03/22 10:54:26;;;;;;;11.88;10.13;;;;;;;;;;5134237;27;20030;-48
2022/03/22 10:56:53;;;;;;;13.60;10.07;;;;;;;;;;5136004;27;20027;-47
2022/03/22 10:59:24;;;;;;;11.23;9.95;;;;;;;;;;5134685;27;20031;-47
2022/03/22 11:01:52;;;;;;;10.77;9.23;;;;;;;;;;5135682;27;20031;-48
2022/03/22 11:04:19;;;;;;;12.40;10.07;;;;;;;;;;5135068;27;20043;-49
2022/03/22 11:06:48;;;;;;;12.77;9.30;;;;;;;;;;5136145;27;20023;-49
2022/03/22 11:09:18;;;;;;;14.05;10.88;;;;;;;;;;5125798;27;20081;-46
2022/03/22 11:11:44;;;;;;;15.82;11.77;;;;;;;;;;5114404;27;20028;-48
2022/03/22 11:14:15;;;;;;;14.70;10.00;;;;;;;;;;5131789;27;20062;-47
2022/03/22 11:16:42;;;;;;;13.50;10.15;;;;;;;;;;5134361;27;20031;-47
2022/03/22 11:19:08;;;;;;;14.52;10.23;;;;;;;;;;5133933;27;20023;-47
2022/03/22 11:21:37;;;;;;;13.98;11.02;;;;;;;;;;5135741;27;20027;-48
2022/03/22 11:24:07;;;;;;;13.82;9.52;;;;;;;;;;5133639;27;20073;-48
2022/03/22 11:26:54;;;;;;;12.18;10.68;;;;;;;;;;5134297;27;20027;-52
2022/03/22 11:29:22;;;;;;;14.95;10.25;;;;;;;;;;5133703;27;20397;-49
2022/03/22 11:34:09;;;;;;;14.00;10.40;;;;;;;;;;5129191;27;20031;-50
2022/03/22 11:34:34;;;;;;;14.60;10.50;;;;;;;;;;5124664;27;20440;-51
2022/03/22 11:37:01;;;;;;;13.90;9.88;;;;;;;;;;5131140;27;20046;-48
2022/03/22 11:42:20;;;;;;;11.32;9.95;;;;;;;;;;5117631;27;20079;-48
2022/03/22 11:44:59;;;;;;;12.05;9.75;;;;;;;;;;5134731;27;20168;-48
2022/03/22 11:47:27;;;;;;;14.63;10.38;;;;;;;;;;5125273;27;20028;-48
2022/03/22 11:49:56;;;;;;;12.65;10.70;;;;;;;;;;5114262;28;20494;-47
2022/03/22 11:52:23;;;;;;;10.65;8.25;;;;;;;;;;5121754;27;20083;-49
2022/03/22 11:55:16;;;;;;;10.05;8.45;;;;;;;;;;5134302;27;20102;-47
2022/03/22 11:57:42;;;;;;;14.07;8.80;;;;;;;;;;5128548;27;20416;-47
2022/03/22 12:00:08;;;;;;;13.07;9.70;;;;;;;;;;5134494;27;20041;-49
2022/03/22 12:02:37;;;;;;;11.82;9.95;;;;;;;;;;5133337;27;20103;-47
2022/03/22 12:05:03;;;;;;;14.65;10.85;;;;;;;;;;5112005;27;20035;-52
2022/03/22 12:07:35;;;;;;;14.85;10.82;;;;;;;;;;5106532;28;20032;-49
2022/03/22 12:10:08;;;;;;;11.48;10.25;;;;;;;;;;5113418;28;20027;-50
2022/03/22 12:12:35;;;;;;;12.30;10.68;;;;;;;;;;5113672;27;20059;-50
2022/03/22 12:15:03;;;;;;;18.42;10.38;;;;;;;;;;5113971;28;20028;-51
2022/03/22 12:17:29;;;;;;;12.73;10.85;;;;;;;;;;5121151;27;20031;-48
2022/03/22 12:20:03;;;;;;;12.77;10.15;;;;;;;;;;5134187;27;20037;-51
2022/03/22 12:22:30;;;;;;;12.10;10.50;;;;;;;;;;5125587;27;20115;-48
2022/03/22 12:25:00;;;;;;;14.35;11.60;;;;;;;;;;5113964;28;20038;-48
2022/03/22 12:27:26;;;;;;;13.93;11.40;;;;;;;;;;5130855;27;20034;-49
2022/03/22 12:29:53;;;;;;;12.23;10.95;;;;;;;;;;5134013;27;20072;-51
2022/03/22 12:32:21;;;;;;;13.07;10.63;;;;;;;;;;5132844;27;20034;-50
2022/03/22 12:34:47;;;;;;;13.85;11.52;;;;;;;;;;5119474;27;20451;-49
2022/03/22 12:37:14;;;;;;;16.88;12.30;;;;;;;;;;5115827;27;20080;-48
2022/03/22 12:39:41;;;;;;;14.73;12.15;;;;;;;;;;5133882;27;20027;-48
2022/03/22 12:42:08;;;;;;;18.52;14.20;;;;;;;;;;5114142;27;20106;-49
2022/03/22 12:44:35;;;;;;;15.00;12.80;;;;;;;;;;5132099;27;20502;-48
2022/03/22 12:47:01;;;;;;;16.00;12.65;;;;;;;;;;5131261;27;20023;-48
2022/03/22 12:49:27;;;;;;;13.98;12.50;;;;;;;;;;5113461;28;20468;-50
2022/03/22 12:51:54;;;;;;;18.05;12.50;;;;;;;;;;5115616;27;20102;-50
2022/03/22 12:54:21;;;;;;;13.98;12.48;;;;;;;;;;5133442;27;20464;-48
2022/03/22 12:56:48;;;;;;;13.23;11.93;;;;;;;;;;5110824;27;20024;-50
2022/03/22 12:59:24;;;;;;;14.98;12.68;;;;;;;;;;5114329;27;20438;-51
2022/03/22 13:01:57;;;;;;;13.73;12.30;;;;;;;;;;5120090;27;20035;-50
2022/03/22 13:04:26;;;;;;;14.05;11.82;;;;;;;;;;5108322;27;20038;-50
2022/03/22 13:07:04;;;;;;;14.95;13.43;;;;;;;;;;5128249;27;20074;-52
2022/03/22 13:12:16;;;;;;;14.65;13.13;;;;;;;;;;5128001;27;20026;-47
2022/03/22 13:17:36;;;;;;;14.40;12.95;;;;;;;;;;5119989;27;20556;-51
2022/03/22 13:20:06;;;;;;;14.93;13.60;;;;;;;;;;5132372;27;20053;-48
2022/03/22 13:22:34;;;;;;;15.60;14.02;;;;;;;;;;5128614;27;20039;-51
2022/03/22 13:25:07;;;;;;;16.35;13.30;;;;;;;;;;5131547;27;20019;-52
2022/03/22 13:27:33;;;;;;;16.30;14.60;;;;;;;;;;5113444;28;20080;-52
2022/03/22 13:30:01;;;;;;;16.23;14.68;;;;;;;;;;5121575;27;20079;-51
2022/03/22 13:32:31;;;;;;;15.82;14.32;;;;;;;;;;5124283;27;20540;-53
2022/03/22 13:35:02;;;;;;;15.10;13.63;;;;;;;;;;5132143;27;20059;-49
2022/03/22 13:37:28;;;;;;;15.70;14.10;;;;;;;;;;5102626;28;20031;-51
2022/03/22 13:40:04;;;;;;;15.55;13.93;;;;;;;;;;5131909;28;20019;-52
2022/03/22 13:42:30;;;;;;;15.68;14.23;;;;;;;;;;5109881;28;20109;-54
2022/03/22 13:44:57;;;;;;;14.82;13.48;;;;;;;;;;5114410;28;20114;-54
2022/03/22 13:47:34;;;;;;;14.63;13.40;;;;;;;;;;5119073;28;20122;-52
2022/03/22 13:50:01;;;;;;;19.00;14.10;;;;;;;;;;5131672;28;20039;-52
2022/03/22 13:52:30;;;;;;;15.48;14.02;;;;;;;;;;5119197;28;20034;-52
2022/03/22 13:54:57;;;;;;;15.10;13.60;;;;;;;;;;5123914;28;20356;-51
2022/03/22 13:57:30;;;;;;;15.98;14.32;;;;;;;;;;5121380;28;20027;-52
2022/03/22 13:59:56;;;;;;;17.08;14.43;;;;;;;;;;5112270;28;20080;-49
2022/03/22 14:02:23;;;;;;;15.02;13.50;;;;;;;;;;5127315;28;20055;-52
2022/03/22 14:04:49;;;;;;;14.63;13.30;;;;;;;;;;5132301;28;20151;-52
2022/03/22 14:07:15;;;;;;;15.77;14.02;;;;;;;;;;5127085;28;20052;-53
2022/03/22 14:09:41;;;;;;;17.85;13.95;;;;;;;;;;5123975;28;20452;-48
2022/03/22 14:12:07;;;;;;;15.65;13.63;;;;;;;;;;5125417;28;20022;-50
2022/03/22 14:14:33;;;;;;;18.45;15.00;;;;;;;;;;5129783;28;20049;-49
2022/03/22 14:16:59;;;;;;;18.67;14.10;;;;;;;;;;5111640;28;20047;-52
2022/03/22 14:19:25;;;;;;;17.20;13.32;;;;;;;;;;5111714;28;20491;-53
2022/03/22 14:21:51;;;;;;;14.88;13.40;;;;;;;;;;5111773;28;20027;-52
2022/03/22 14:24:17;;;;;;;14.48;12.82;;;;;;;;;;5128365;28;20042;-49
2022/03/22 14:26:43;;;;;;;15.05;13.43;;;;;;;;;;5132863;28;20031;-50
2022/03/22 14:29:10;;;;;;;15.35;13.77;;;;;;;;;;5104644;28;20053;-49
2022/03/22 14:31:36;;;;;;;16.67;13.82;;;;;;;;;;5132390;28;20023;-52
2022/03/22 14:34:02;;;;;;;16.00;14.40;;;;;;;;;;5130798;28;20039;-51
2022/03/22 14:36:28;;;;;;;18.08;13.88;;;;;;;;;;5132655;28;20057;-49
2022/03/22 14:38:54;;;;;;;17.63;13.27;;;;;;;;;;5130936;28;20073;-50
2022/03/22 14:41:27;;;;;;;15.63;12.15;;;;;;;;;;5113837;28;20043;-49
2022/03/22 14:43:57;;;;;;;14.75;13.25;;;;;;;;;;5104716;28;20039;-52
2022/03/22 14:46:24;;;;;;;141.35;26.60;;;;;;;;;;5132353;28;20133;-51
2022/03/22 14:48:50;;;;;;;46.92;16.73;;;;;;;;;;5129036;28;20029;-50
2022/03/22 14:54:05;;;;;;;20.75;14.23;;;;;;;;;;5132420;27;20442;-52
2022/03/22 14:59:16;;;;;;;14.50;12.93;;;;;;;;;;5134342;27;20206;-49
2022/03/22 15:01:43;;;;;;;17.35;13.02;;;;;;;;;;5135864;27;20050;-54
2022/03/22 15:04:09;;;;;;;17.92;13.63;;;;;;;;;;5121775;27;20036;-53
2022/03/22 15:06:37;;;;;;;21.20;14.60;;;;;;;;;;5119047;27;20011;-54
2022/03/22 15:09:05;;;;;;;17.10;13.95;;;;;;;;;;5099134;28;20036;-53
2022/03/22 15:11:33;;;;;;;16.60;14.07;;;;;;;;;;5098012;27;20028;-54